sensor_id;sensor_type;location;lat;lon;timestamp;temperature;humidity
75683;HTU21D;64295;44.772;39.872;2022-12-07T00:01:43;1.01;65.84
75683;HTU21D;64295;44.772;39.872;2022-12-07T00:04:12;0.95;65.94
75683;HTU21D;64295;44.772;39.872;2022-12-07T00:06:40;0.91;65.98
75683;HTU21D;64295;44.772;39.872;2022-12-07T00:09:09;0.90;66.01
75683;HTU21D;64295;44.772;39.872;2022-12-07T00:11:36;0.90;65.99
75683;HTU21D;64295;44.772;39.872;2022-12-07T00:14:04;0.91;65.94
75683;HTU21D;64295;44.772;39.872;2022-12-07T00:16:32;0.90;65.92
75683;HTU21D;64295;44.772;39.872;2022-12-07T00:18:59;0.87;65.93
75683;HTU21D;64295;44.772;39.872;2022-12-07T00:21:31;0.81;65.99
75683;HTU21D;64295;44.772;39.872;2022-12-07T00:23:58;0.77;66.04
75683;HTU21D;64295;44.772;39.872;2022-12-07T00:26:27;0.69;66.14
75683;HTU21D;64295;44.772;39.872;2022-12-07T00:28:56;0.66;66.19
75683;HTU21D;64295;44.772;39.872;2022-12-07T00:31:24;0.61;66.25
75683;HTU21D;64295;44.772;39.872;2022-12-07T00:33:51;0.57;66.30
75683;HTU21D;64295;44.772;39.872;2022-12-07T00:36:20;0.53;66.34
75683;HTU21D;64295;44.772;39.872;2022-12-07T00:38:46;0.53;66.32
75683;HTU21D;64295;44.772;39.872;2022-12-07T00:41:13;0.50;66.29
75683;HTU21D;64295;44.772;39.872;2022-12-07T00:43:40;0.42;66.43
75683;HTU21D;64295;44.772;39.872;2022-12-07T00:46:06;0.35;66.56
75683;HTU21D;64295;44.772;39.872;2022-12-07T00:48:33;0.29;66.62
75683;HTU21D;64295;44.772;39.872;2022-12-07T00:50:59;0.25;66.76
75683;HTU21D;64295;44.772;39.872;2022-12-07T00:53:26;0.29;66.70
75683;HTU21D;64295;44.772;39.872;2022-12-07T00:55:52;0.34;66.55
75683;HTU21D;64295;44.772;39.872;2022-12-07T00:58:22;0.42;66.43
75683;HTU21D;64295;44.772;39.872;2022-12-07T01:00:48;0.40;66.38
75683;HTU21D;64295;44.772;39.872;2022-12-07T01:03:15;0.42;66.40
75683;HTU21D;64295;44.772;39.872;2022-12-07T01:05:52;0.42;66.38
75683;HTU21D;64295;44.772;39.872;2022-12-07T01:08:18;0.44;66.37
75683;HTU21D;64295;44.772;39.872;2022-12-07T01:10:44;0.46;66.33
75683;HTU21D;64295;44.772;39.872;2022-12-07T01:13:10;0.46;66.32
75683;HTU21D;64295;44.772;39.872;2022-12-07T01:15:40;0.46;66.34
75683;HTU21D;64295;44.772;39.872;2022-12-07T01:18:06;0.48;66.36
75683;HTU21D;64295;44.772;39.872;2022-12-07T01:20:32;0.47;66.31
75683;HTU21D;64295;44.772;39.872;2022-12-07T01:22:57;0.47;66.33
75683;HTU21D;64295;44.772;39.872;2022-12-07T01:25:23;0.47;66.31
75683;HTU21D;64295;44.772;39.872;2022-12-07T01:27:49;0.47;66.31
75683;HTU21D;64295;44.772;39.872;2022-12-07T01:30:15;0.46;66.34
75683;HTU21D;64295;44.772;39.872;2022-12-07T01:32:41;0.49;66.35
75683;HTU21D;64295;44.772;39.872;2022-12-07T01:35:12;0.48;66.33
75683;HTU21D;64295;44.772;39.872;2022-12-07T01:37:38;0.46;66.35
75683;HTU21D;64295;44.772;39.872;2022-12-07T01:40:06;0.45;66.43
75683;HTU21D;64295;44.772;39.872;2022-12-07T01:42:33;0.45;66.43
75683;HTU21D;64295;44.772;39.872;2022-12-07T01:47:46;0.50;66.36
75683;HTU21D;64295;44.772;39.872;2022-12-07T01:50:12;0.54;66.32
75683;HTU21D;64295;44.772;39.872;2022-12-07T01:52:39;0.57;66.29
75683;HTU21D;64295;44.772;39.872;2022-12-07T01:55:10;0.61;66.30
75683;HTU21D;64295;44.772;39.872;2022-12-07T01:57:40;0.61;66.30
75683;HTU21D;64295;44.772;39.872;2022-12-07T02:00:08;0.62;66.31
75683;HTU21D;64295;44.772;39.872;2022-12-07T02:03:07;0.63;66.37
75683;HTU21D;64295;44.772;39.872;2022-12-07T02:05:35;0.66;66.33
75683;HTU21D;64295;44.772;39.872;2022-12-07T02:08:03;0.64;66.31
75683;HTU21D;64295;44.772;39.872;2022-12-07T02:10:31;0.61;66.40
75683;HTU21D;64295;44.772;39.872;2022-12-07T02:13:27;0.61;66.50
75683;HTU21D;64295;44.772;39.872;2022-12-07T02:16:11;0.72;66.55
75683;HTU21D;64295;44.772;39.872;2022-12-07T02:21:24;0.86;66.25
75683;HTU21D;64295;44.772;39.872;2022-12-07T02:29:55;1.01;66.03
75683;HTU21D;64295;44.772;39.872;2022-12-07T02:32:58;1.07;66.01
75683;HTU21D;64295;44.772;39.872;2022-12-07T02:35:42;1.16;65.95
75683;HTU21D;64295;44.772;39.872;2022-12-07T02:40:57;1.18;65.90
75683;HTU21D;64295;44.772;39.872;2022-12-07T02:43:42;1.08;66.10
75683;HTU21D;64295;44.772;39.872;2022-12-07T02:46:16;1.02;66.21
75683;HTU21D;64295;44.772;39.872;2022-12-07T02:48:43;0.97;66.32
75683;HTU21D;64295;44.772;39.872;2022-12-07T02:51:11;0.93;66.39
75683;HTU21D;64295;44.772;39.872;2022-12-07T02:53:42;0.84;66.49
75683;HTU21D;64295;44.772;39.872;2022-12-07T02:57:13;0.78;66.63
75683;HTU21D;64295;44.772;39.872;2022-12-07T03:08:07;0.51;66.98
75683;HTU21D;64295;44.772;39.872;2022-12-07T03:13:19;0.46;67.04
75683;HTU21D;64295;44.772;39.872;2022-12-07T03:18:22;0.49;66.91
75683;HTU21D;64295;44.772;39.872;2022-12-07T03:20:51;0.48;66.91
75683;HTU21D;64295;44.772;39.872;2022-12-07T03:23:18;0.48;66.94
75683;HTU21D;64295;44.772;39.872;2022-12-07T03:25:52;0.43;67.04
75683;HTU21D;64295;44.772;39.872;2022-12-07T03:28:22;0.40;67.12
75683;HTU21D;64295;44.772;39.872;2022-12-07T03:31:08;0.43;67.12
75683;HTU21D;64295;44.772;39.872;2022-12-07T03:33:52;0.45;67.04
75683;HTU21D;64295;44.772;39.872;2022-12-07T03:39:07;0.53;66.93
75683;HTU21D;64295;44.772;39.872;2022-12-07T03:41:37;0.59;66.88
75683;HTU21D;64295;44.772;39.872;2022-12-07T03:44:04;0.65;66.81
75683;HTU21D;64295;44.772;39.872;2022-12-07T03:46:38;0.73;66.72
75683;HTU21D;64295;44.772;39.872;2022-12-07T03:52:05;0.83;66.69
75683;HTU21D;64295;44.772;39.872;2022-12-07T03:54:41;0.87;66.65
75683;HTU21D;64295;44.772;39.872;2022-12-07T03:57:10;0.91;66.65
75683;HTU21D;64295;44.772;39.872;2022-12-07T03:59:38;0.94;66.69
75683;HTU21D;64295;44.772;39.872;2022-12-07T04:02:06;0.97;66.69
75683;HTU21D;64295;44.772;39.872;2022-12-07T04:04:33;1.02;66.69
75683;HTU21D;64295;44.772;39.872;2022-12-07T04:06:59;1.06;66.69
75683;HTU21D;64295;44.772;39.872;2022-12-07T04:09:26;1.08;66.68
75683;HTU21D;64295;44.772;39.872;2022-12-07T04:11:52;1.12;66.71
75683;HTU21D;64295;44.772;39.872;2022-12-07T04:14:18;1.14;66.72
75683;HTU21D;64295;44.772;39.872;2022-12-07T04:16:55;1.17;66.77
75683;HTU21D;64295;44.772;39.872;2022-12-07T04:19:30;1.21;66.70
75683;HTU21D;64295;44.772;39.872;2022-12-07T04:21:57;1.21;66.71
75683;HTU21D;64295;44.772;39.872;2022-12-07T04:24:24;1.23;66.72
75683;HTU21D;64295;44.772;39.872;2022-12-07T04:26:50;1.24;66.75
75683;HTU21D;64295;44.772;39.872;2022-12-07T04:29:17;1.26;66.81
75683;HTU21D;64295;44.772;39.872;2022-12-07T04:31:44;1.27;66.82
75683;HTU21D;64295;44.772;39.872;2022-12-07T04:34:11;1.29;66.84
75683;HTU21D;64295;44.772;39.872;2022-12-07T04:36:37;1.32;66.84
75683;HTU21D;64295;44.772;39.872;2022-12-07T04:39:05;1.33;66.84
75683;HTU21D;64295;44.772;39.872;2022-12-07T04:41:31;1.33;66.86
75683;HTU21D;64295;44.772;39.872;2022-12-07T04:44:03;1.34;66.91
75683;HTU21D;64295;44.772;39.872;2022-12-07T04:46:48;1.35;66.91
75683;HTU21D;64295;44.772;39.872;2022-12-07T04:49:15;1.35;66.94
75683;HTU21D;64295;44.772;39.872;2022-12-07T04:51:42;1.33;66.98
75683;HTU21D;64295;44.772;39.872;2022-12-07T04:54:08;1.32;67.03
75683;HTU21D;64295;44.772;39.872;2022-12-07T04:56:35;1.41;67.59
75683;HTU21D;64295;44.772;39.872;2022-12-07T04:59:01;1.70;67.11
75683;HTU21D;64295;44.772;39.872;2022-12-07T05:01:27;1.69;67.00
75683;HTU21D;64295;44.772;39.872;2022-12-07T05:03:53;1.65;67.10
75683;HTU21D;64295;44.772;39.872;2022-12-07T05:06:19;1.60;67.14
75683;HTU21D;64295;44.772;39.872;2022-12-07T05:08:45;1.54;67.24
75683;HTU21D;64295;44.772;39.872;2022-12-07T05:11:12;1.47;67.34
75683;HTU21D;64295;44.772;39.872;2022-12-07T05:13:58;1.41;67.50
75683;HTU21D;64295;44.772;39.872;2022-12-07T05:16:24;1.40;67.47
75683;HTU21D;64295;44.772;39.872;2022-12-07T05:18:50;1.42;67.46
75683;HTU21D;64295;44.772;39.872;2022-12-07T05:21:16;1.41;67.41
75683;HTU21D;64295;44.772;39.872;2022-12-07T05:23:41;1.36;67.47
75683;HTU21D;64295;44.772;39.872;2022-12-07T05:26:07;1.37;67.52
75683;HTU21D;64295;44.772;39.872;2022-12-07T05:28:33;1.40;67.45
75683;HTU21D;64295;44.772;39.872;2022-12-07T05:31:01;1.46;67.36
75683;HTU21D;64295;44.772;39.872;2022-12-07T05:33:27;1.43;67.31
75683;HTU21D;64295;44.772;39.872;2022-12-07T05:35:53;1.41;67.35
75683;HTU21D;64295;44.772;39.872;2022-12-07T05:38:19;1.38;67.46
75683;HTU21D;64295;44.772;39.872;2022-12-07T05:40:45;1.41;67.42
75683;HTU21D;64295;44.772;39.872;2022-12-07T05:43:11;1.43;67.39
75683;HTU21D;64295;44.772;39.872;2022-12-07T05:45:37;1.46;67.32
75683;HTU21D;64295;44.772;39.872;2022-12-07T05:48:05;1.45;67.38
75683;HTU21D;64295;44.772;39.872;2022-12-07T05:50:31;1.43;67.39
75683;HTU21D;64295;44.772;39.872;2022-12-07T05:53:00;1.42;67.46
75683;HTU21D;64295;44.772;39.872;2022-12-07T05:55:26;1.47;67.38
75683;HTU21D;64295;44.772;39.872;2022-12-07T05:57:52;1.76;67.53
75683;HTU21D;64295;44.772;39.872;2022-12-07T06:00:36;1.91;67.13
75683;HTU21D;64295;44.772;39.872;2022-12-07T06:03:02;1.88;67.15
75683;HTU21D;64295;44.772;39.872;2022-12-07T06:05:28;1.86;67.27
75683;HTU21D;64295;44.772;39.872;2022-12-07T06:07:53;1.87;67.27
75683;HTU21D;64295;44.772;39.872;2022-12-07T06:10:19;1.88;67.28
75683;HTU21D;64295;44.772;39.872;2022-12-07T06:12:45;1.91;67.29
75683;HTU21D;64295;44.772;39.872;2022-12-07T06:15:11;1.92;67.25
75683;HTU21D;64295;44.772;39.872;2022-12-07T06:17:38;1.96;67.24
75683;HTU21D;64295;44.772;39.872;2022-12-07T06:20:07;2.02;67.15
75683;HTU21D;64295;44.772;39.872;2022-12-07T06:22:33;2.09;67.07
75683;HTU21D;64295;44.772;39.872;2022-12-07T06:24:59;2.14;67.04
75683;HTU21D;64295;44.772;39.872;2022-12-07T06:27:25;2.19;67.01
75683;HTU21D;64295;44.772;39.872;2022-12-07T06:29:51;2.25;66.98
75683;HTU21D;64295;44.772;39.872;2022-12-07T06:32:17;2.39;66.76
75683;HTU21D;64295;44.772;39.872;2022-12-07T06:34:43;2.46;66.65
75683;HTU21D;64295;44.772;39.872;2022-12-07T06:37:09;2.52;66.60
75683;HTU21D;64295;44.772;39.872;2022-12-07T06:39:34;2.58;66.56
75683;HTU21D;64295;44.772;39.872;2022-12-07T06:42:00;2.57;66.57
75683;HTU21D;64295;44.772;39.872;2022-12-07T06:44:26;2.65;66.56
75683;HTU21D;64295;44.772;39.872;2022-12-07T06:46:52;2.69;66.52
75683;HTU21D;64295;44.772;39.872;2022-12-07T06:49:18;2.73;66.46
75683;HTU21D;64295;44.772;39.872;2022-12-07T06:51:47;2.76;66.53
75683;HTU21D;64295;44.772;39.872;2022-12-07T06:54:14;2.81;66.46
75683;HTU21D;64295;44.772;39.872;2022-12-07T06:56:41;2.81;66.48
75683;HTU21D;64295;44.772;39.872;2022-12-07T06:59:07;2.85;66.42
75683;HTU21D;64295;44.772;39.872;2022-12-07T07:01:34;2.87;66.53
75683;HTU21D;64295;44.772;39.872;2022-12-07T07:04:01;3.01;66.50
75683;HTU21D;64295;44.772;39.872;2022-12-07T07:06:27;3.03;66.39
75683;HTU21D;64295;44.772;39.872;2022-12-07T07:08:53;3.03;66.42
75683;HTU21D;64295;44.772;39.872;2022-12-07T07:11:19;3.12;66.42
75683;HTU21D;64295;44.772;39.872;2022-12-07T07:13:45;3.17;66.34
75683;HTU21D;64295;44.772;39.872;2022-12-07T07:16:11;3.29;66.32
75683;HTU21D;64295;44.772;39.872;2022-12-07T07:18:37;3.36;66.25
75683;HTU21D;64295;44.772;39.872;2022-12-07T07:21:03;3.43;66.23
75683;HTU21D;64295;44.772;39.872;2022-12-07T07:23:29;3.55;66.11
75683;HTU21D;64295;44.772;39.872;2022-12-07T07:25:55;3.68;65.91
75683;HTU21D;64295;44.772;39.872;2022-12-07T07:28:21;3.88;65.70
75683;HTU21D;64295;44.772;39.872;2022-12-07T07:30:47;4.00;65.50
75683;HTU21D;64295;44.772;39.872;2022-12-07T07:33:13;4.03;65.47
75683;HTU21D;64295;44.772;39.872;2022-12-07T07:35:39;4.01;65.54
75683;HTU21D;64295;44.772;39.872;2022-12-07T07:38:06;4.03;65.62
75683;HTU21D;64295;44.772;39.872;2022-12-07T07:40:32;4.05;65.66
75683;HTU21D;64295;44.772;39.872;2022-12-07T07:42:58;4.05;65.66
75683;HTU21D;64295;44.772;39.872;2022-12-07T07:45:26;4.04;65.80
75683;HTU21D;64295;44.772;39.872;2022-12-07T07:47:52;4.13;65.83
75683;HTU21D;64295;44.772;39.872;2022-12-07T07:50:18;4.22;65.76
75683;HTU21D;64295;44.772;39.872;2022-12-07T07:52:45;4.30;65.66
75683;HTU21D;64295;44.772;39.872;2022-12-07T07:55:11;4.31;65.62
75683;HTU21D;64295;44.772;39.872;2022-12-07T07:57:39;4.35;65.62
75683;HTU21D;64295;44.772;39.872;2022-12-07T08:00:08;4.42;65.59
75683;HTU21D;64295;44.772;39.872;2022-12-07T08:02:38;4.47;65.53
75683;HTU21D;64295;44.772;39.872;2022-12-07T08:05:04;4.51;65.52
75683;HTU21D;64295;44.772;39.872;2022-12-07T08:07:30;4.58;65.44
75683;HTU21D;64295;44.772;39.872;2022-12-07T08:09:56;4.62;65.43
75683;HTU21D;64295;44.772;39.872;2022-12-07T08:12:21;4.71;65.34
75683;HTU21D;64295;44.772;39.872;2022-12-07T08:14:47;4.77;65.24
75683;HTU21D;64295;44.772;39.872;2022-12-07T08:17:13;4.88;65.12
75683;HTU21D;64295;44.772;39.872;2022-12-07T08:19:39;5.03;64.89
75683;HTU21D;64295;44.772;39.872;2022-12-07T08:22:05;5.17;64.71
75683;HTU21D;64295;44.772;39.872;2022-12-07T08:24:35;5.34;64.47
75683;HTU21D;64295;44.772;39.872;2022-12-07T08:27:01;5.49;64.16
75683;HTU21D;64295;44.772;39.872;2022-12-07T08:29:27;5.52;64.14
75683;HTU21D;64295;44.772;39.872;2022-12-07T08:31:53;5.50;64.24
75683;HTU21D;64295;44.772;39.872;2022-12-07T08:34:19;5.54;64.31
75683;HTU21D;64295;44.772;39.872;2022-12-07T08:36:45;5.59;64.28
75683;HTU21D;64295;44.772;39.872;2022-12-07T08:39:11;5.61;64.30
75683;HTU21D;64295;44.772;39.872;2022-12-07T08:41:37;5.96;64.21
75683;HTU21D;64295;44.772;39.872;2022-12-07T08:44:03;6.29;63.69
75683;HTU21D;64295;44.772;39.872;2022-12-07T08:46:44;6.57;63.25
75683;HTU21D;64295;44.772;39.872;2022-12-07T08:49:13;6.85;62.82
75683;HTU21D;64295;44.772;39.872;2022-12-07T08:51:41;7.17;62.41
75683;HTU21D;64295;44.772;39.872;2022-12-07T08:54:10;7.31;62.17
75683;HTU21D;64295;44.772;39.872;2022-12-07T08:56:37;7.44;62.00
75683;HTU21D;64295;44.772;39.872;2022-12-07T08:59:04;7.67;61.88
75683;HTU21D;64295;44.772;39.872;2022-12-07T09:01:31;7.94;61.55
75683;HTU21D;64295;44.772;39.872;2022-12-07T09:03:57;8.19;61.28
75683;HTU21D;64295;44.772;39.872;2022-12-07T09:06:23;8.43;61.06
75683;HTU21D;64295;44.772;39.872;2022-12-07T09:08:53;8.53;60.86
75683;HTU21D;64295;44.772;39.872;2022-12-07T09:11:20;8.50;61.17
75683;HTU21D;64295;44.772;39.872;2022-12-07T09:13:46;8.43;61.47
75683;HTU21D;64295;44.772;39.872;2022-12-07T09:16:12;8.45;61.68
75683;HTU21D;64295;44.772;39.872;2022-12-07T09:18:38;8.53;61.64
75683;HTU21D;64295;44.772;39.872;2022-12-07T09:21:04;8.73;61.60
75683;HTU21D;64295;44.772;39.872;2022-12-07T09:23:30;8.92;61.31
75683;HTU21D;64295;44.772;39.872;2022-12-07T09:26:00;9.08;61.01
75683;HTU21D;64295;44.772;39.872;2022-12-07T09:28:26;9.25;60.89
75683;HTU21D;64295;44.772;39.872;2022-12-07T09:30:52;9.37;60.70
75683;HTU21D;64295;44.772;39.872;2022-12-07T09:33:18;9.47;60.68
75683;HTU21D;64295;44.772;39.872;2022-12-07T09:35:48;9.60;60.56
75683;HTU21D;64295;44.772;39.872;2022-12-07T09:38:15;9.75;60.47
75683;HTU21D;64295;44.772;39.872;2022-12-07T09:40:41;9.82;60.25
75683;HTU21D;64295;44.772;39.872;2022-12-07T09:43:18;9.91;60.08
75683;HTU21D;64295;44.772;39.872;2022-12-07T09:45:46;9.98;59.96
75683;HTU21D;64295;44.772;39.872;2022-12-07T09:48:18;9.93;59.91
75683;HTU21D;64295;44.772;39.872;2022-12-07T09:50:46;9.97;59.99
75683;HTU21D;64295;44.772;39.872;2022-12-07T09:53:19;10.09;59.97
75683;HTU21D;64295;44.772;39.872;2022-12-07T09:55:46;10.00;60.08
75683;HTU21D;64295;44.772;39.872;2022-12-07T09:58:21;9.82;60.19
75683;HTU21D;64295;44.772;39.872;2022-12-07T10:00:48;9.76;60.29
75683;HTU21D;64295;44.772;39.872;2022-12-07T10:03:14;9.68;60.57
75683;HTU21D;64295;44.772;39.872;2022-12-07T10:05:42;9.66;60.60
75683;HTU21D;64295;44.772;39.872;2022-12-07T10:08:14;9.64;60.65
75683;HTU21D;64295;44.772;39.872;2022-12-07T10:10:44;9.67;60.77
75683;HTU21D;64295;44.772;39.872;2022-12-07T10:13:15;9.80;60.49
75683;HTU21D;64295;44.772;39.872;2022-12-07T10:15:52;9.89;60.31
75683;HTU21D;64295;44.772;39.872;2022-12-07T10:18:39;9.95;60.51
75683;HTU21D;64295;44.772;39.872;2022-12-07T10:21:20;10.00;60.31
75683;HTU21D;64295;44.772;39.872;2022-12-07T10:29:17;10.22;59.93
75683;HTU21D;64295;44.772;39.872;2022-12-07T10:31:46;10.27;59.86
75683;HTU21D;64295;44.772;39.872;2022-12-07T10:34:26;10.18;59.89
75683;HTU21D;64295;44.772;39.872;2022-12-07T10:36:53;10.24;60.27
75683;HTU21D;64295;44.772;39.872;2022-12-07T10:39:23;10.16;60.15
75683;HTU21D;64295;44.772;39.872;2022-12-07T10:41:59;10.07;60.45
75683;HTU21D;64295;44.772;39.872;2022-12-07T10:44:28;10.05;60.35
75683;HTU21D;64295;44.772;39.872;2022-12-07T11:01:51;10.05;59.38
75683;HTU21D;64295;44.772;39.872;2022-12-07T11:04:36;9.96;59.44
75683;HTU21D;64295;44.772;39.872;2022-12-07T11:07:17;9.92;59.38
75683;HTU21D;64295;44.772;39.872;2022-12-07T11:13:01;9.86;59.27
75683;HTU21D;64295;44.772;39.872;2022-12-07T11:18:27;9.78;59.22
75683;HTU21D;64295;44.772;39.872;2022-12-07T11:37:37;9.39;59.19
75683;HTU21D;64295;44.772;39.872;2022-12-07T11:40:20;9.33;58.90
75683;HTU21D;64295;44.772;39.872;2022-12-07T11:51:02;9.18;58.97
75683;HTU21D;64295;44.772;39.872;2022-12-07T11:53:41;9.24;58.83
75683;HTU21D;64295;44.772;39.872;2022-12-07T11:56:16;9.25;58.83
75683;HTU21D;64295;44.772;39.872;2022-12-07T12:06:40;9.15;58.79
75683;HTU21D;64295;44.772;39.872;2022-12-07T12:15:03;8.72;58.76
75683;HTU21D;64295;44.772;39.872;2022-12-07T12:19:58;8.63;58.60
75683;HTU21D;64295;44.772;39.872;2022-12-07T12:22:35;8.61;58.63
75683;HTU21D;64295;44.772;39.872;2022-12-07T12:25:06;8.62;58.56
75683;HTU21D;64295;44.772;39.872;2022-12-07T12:27:37;8.59;58.51
75683;HTU21D;64295;44.772;39.872;2022-12-07T12:30:23;8.60;58.45
75683;HTU21D;64295;44.772;39.872;2022-12-07T12:32:50;8.58;58.49
75683;HTU21D;64295;44.772;39.872;2022-12-07T12:35:38;8.55;58.26
75683;HTU21D;64295;44.772;39.872;2022-12-07T12:40:54;8.46;58.35
75683;HTU21D;64295;44.772;39.872;2022-12-07T12:43:50;8.38;58.24
75683;HTU21D;64295;44.772;39.872;2022-12-07T12:46:38;8.28;58.29
75683;HTU21D;64295;44.772;39.872;2022-12-07T12:52:00;8.14;58.50
75683;HTU21D;64295;44.772;39.872;2022-12-07T12:54:31;8.13;58.57
75683;HTU21D;64295;44.772;39.872;2022-12-07T12:57:17;8.08;58.45
75683;HTU21D;64295;44.772;39.872;2022-12-07T13:02:23;8.00;58.45
75683;HTU21D;64295;44.772;39.872;2022-12-07T13:10:21;7.85;58.58
75683;HTU21D;64295;44.772;39.872;2022-12-07T13:12:57;7.89;58.53
75683;HTU21D;64295;44.772;39.872;2022-12-07T13:15:35;7.91;58.49
75683;HTU21D;64295;44.772;39.872;2022-12-07T13:18:04;7.91;58.50
75683;HTU21D;64295;44.772;39.872;2022-12-07T13:20:46;7.91;58.48
75683;HTU21D;64295;44.772;39.872;2022-12-07T13:23:18;7.93;58.51
75683;HTU21D;64295;44.772;39.872;2022-12-07T13:26:00;7.93;58.45
75683;HTU21D;64295;44.772;39.872;2022-12-07T13:28:35;7.91;58.48
75683;HTU21D;64295;44.772;39.872;2022-12-07T13:33:30;7.86;58.55
75683;HTU21D;64295;44.772;39.872;2022-12-07T13:35:56;7.86;58.61
75683;HTU21D;64295;44.772;39.872;2022-12-07T13:38:33;7.82;58.54
75683;HTU21D;64295;44.772;39.872;2022-12-07T13:41:03;7.74;58.67
75683;HTU21D;64295;44.772;39.872;2022-12-07T13:43:29;7.64;58.73
75683;HTU21D;64295;44.772;39.872;2022-12-07T13:45:58;7.64;58.73
75683;HTU21D;64295;44.772;39.872;2022-12-07T13:48:46;7.61;58.64
75683;HTU21D;64295;44.772;39.872;2022-12-07T13:51:22;7.61;58.56
75683;HTU21D;64295;44.772;39.872;2022-12-07T13:53:52;7.56;58.49
75683;HTU21D;64295;44.772;39.872;2022-12-07T13:56:22;7.49;58.68
75683;HTU21D;64295;44.772;39.872;2022-12-07T13:58:48;7.50;58.72
75683;HTU21D;64295;44.772;39.872;2022-12-07T14:01:14;7.57;58.53
75683;HTU21D;64295;44.772;39.872;2022-12-07T14:03:40;7.53;58.18
75683;HTU21D;64295;44.772;39.872;2022-12-07T14:06:27;7.78;58.08
75683;HTU21D;64295;44.772;39.872;2022-12-07T14:09:19;7.71;57.60
75683;HTU21D;64295;44.772;39.872;2022-12-07T14:11:48;7.57;57.85
75683;HTU21D;64295;44.772;39.872;2022-12-07T14:14:21;7.47;57.84
75683;HTU21D;64295;44.772;39.872;2022-12-07T14:16:59;7.33;57.77
75683;HTU21D;64295;44.772;39.872;2022-12-07T14:19:48;7.25;57.94
75683;HTU21D;64295;44.772;39.872;2022-12-07T14:22:38;7.17;57.89
75683;HTU21D;64295;44.772;39.872;2022-12-07T14:25:24;7.09;57.96
75683;HTU21D;64295;44.772;39.872;2022-12-07T14:28:01;7.02;57.98
75683;HTU21D;64295;44.772;39.872;2022-12-07T14:30:29;6.96;58.04
75683;HTU21D;64295;44.772;39.872;2022-12-07T14:33:01;6.94;58.05
75683;HTU21D;64295;44.772;39.872;2022-12-07T14:35:28;6.93;58.15
75683;HTU21D;64295;44.772;39.872;2022-12-07T14:37:54;6.94;58.09
75683;HTU21D;64295;44.772;39.872;2022-12-07T14:40:28;7.08;58.17
75683;HTU21D;64295;44.772;39.872;2022-12-07T14:43:02;7.09;58.05
75683;HTU21D;64295;44.772;39.872;2022-12-07T14:45:28;7.07;58.01
75683;HTU21D;64295;44.772;39.872;2022-12-07T14:47:54;7.08;57.97
75683;HTU21D;64295;44.772;39.872;2022-12-07T14:50:21;7.07;58.22
75683;HTU21D;64295;44.772;39.872;2022-12-07T14:52:51;7.10;58.10
75683;HTU21D;64295;44.772;39.872;2022-12-07T14:55:25;7.01;58.06
75683;HTU21D;64295;44.772;39.872;2022-12-07T14:57:52;6.88;58.07
75683;HTU21D;64295;44.772;39.872;2022-12-07T15:00:19;6.79;58.30
75683;HTU21D;64295;44.772;39.872;2022-12-07T15:02:46;6.67;58.23
75683;HTU21D;64295;44.772;39.872;2022-12-07T15:05:13;6.57;58.43
75683;HTU21D;64295;44.772;39.872;2022-12-07T15:07:39;6.55;58.53
75683;HTU21D;64295;44.772;39.872;2022-12-07T15:10:09;6.50;58.45
75683;HTU21D;64295;44.772;39.872;2022-12-07T15:12:36;6.60;58.44
75683;HTU21D;64295;44.772;39.872;2022-12-07T15:15:03;6.59;58.45
75683;HTU21D;64295;44.772;39.872;2022-12-07T15:17:29;6.57;58.47
75683;HTU21D;64295;44.772;39.872;2022-12-07T15:19:55;6.51;58.58
75683;HTU21D;64295;44.772;39.872;2022-12-07T15:22:21;6.63;58.58
75683;HTU21D;64295;44.772;39.872;2022-12-07T15:24:47;6.63;58.36
75683;HTU21D;64295;44.772;39.872;2022-12-07T15:27:13;6.50;58.54
75683;HTU21D;64295;44.772;39.872;2022-12-07T15:29:39;6.53;58.50
75683;HTU21D;64295;44.772;39.872;2022-12-07T15:32:05;6.45;58.50
75683;HTU21D;64295;44.772;39.872;2022-12-07T15:34:31;6.34;58.61
75683;HTU21D;64295;44.772;39.872;2022-12-07T15:36:57;6.25;58.76
75683;HTU21D;64295;44.772;39.872;2022-12-07T15:39:23;6.16;58.90
75683;HTU21D;64295;44.772;39.872;2022-12-07T15:41:49;6.11;58.93
75683;HTU21D;64295;44.772;39.872;2022-12-07T15:44:15;6.01;59.00
75683;HTU21D;64295;44.772;39.872;2022-12-07T15:47:00;5.91;59.09
75683;HTU21D;64295;44.772;39.872;2022-12-07T15:49:26;5.84;59.19
75683;HTU21D;64295;44.772;39.872;2022-12-07T15:51:52;5.94;59.23
75683;HTU21D;64295;44.772;39.872;2022-12-07T15:54:29;5.91;59.16
75683;HTU21D;64295;44.772;39.872;2022-12-07T15:56:58;5.85;59.32
75683;HTU21D;64295;44.772;39.872;2022-12-07T15:59:25;5.80;59.58
75683;HTU21D;64295;44.772;39.872;2022-12-07T16:01:52;5.82;59.57
75683;HTU21D;64295;44.772;39.872;2022-12-07T16:04:21;6.08;59.85
75683;HTU21D;64295;44.772;39.872;2022-12-07T16:06:47;6.20;59.28
75683;HTU21D;64295;44.772;39.872;2022-12-07T16:09:13;6.07;59.30
75683;HTU21D;64295;44.772;39.872;2022-12-07T16:11:39;6.01;59.53
75683;HTU21D;64295;44.772;39.872;2022-12-07T16:14:05;6.05;59.60
75683;HTU21D;64295;44.772;39.872;2022-12-07T16:16:31;6.05;59.62
75683;HTU21D;64295;44.772;39.872;2022-12-07T16:18:58;6.17;59.63
75683;HTU21D;64295;44.772;39.872;2022-12-07T16:21:24;6.14;59.48
75683;HTU21D;64295;44.772;39.872;2022-12-07T16:23:50;6.01;59.65
75683;HTU21D;64295;44.772;39.872;2022-12-07T16:26:18;5.86;59.78
75683;HTU21D;64295;44.772;39.872;2022-12-07T16:28:48;5.67;59.90
75683;HTU21D;64295;44.772;39.872;2022-12-07T16:31:16;5.57;60.06
75683;HTU21D;64295;44.772;39.872;2022-12-07T16:33:43;5.51;60.07
75683;HTU21D;64295;44.772;39.872;2022-12-07T16:36:13;5.41;59.97
75683;HTU21D;64295;44.772;39.872;2022-12-07T16:38:42;5.27;60.17
75683;HTU21D;64295;44.772;39.872;2022-12-07T16:41:09;5.19;60.23
75683;HTU21D;64295;44.772;39.872;2022-12-07T16:43:36;5.11;60.25
75683;HTU21D;64295;44.772;39.872;2022-12-07T16:46:04;5.12;60.37
75683;HTU21D;64295;44.772;39.872;2022-12-07T16:48:38;5.16;60.14
75683;HTU21D;64295;44.772;39.872;2022-12-07T16:51:08;5.11;60.12
75683;HTU21D;64295;44.772;39.872;2022-12-07T16:53:36;5.06;60.08
75683;HTU21D;64295;44.772;39.872;2022-12-07T16:56:03;5.19;60.46
75683;HTU21D;64295;44.772;39.872;2022-12-07T16:58:30;5.43;60.09
75683;HTU21D;64295;44.772;39.872;2022-12-07T17:00:56;5.41;59.96
75683;HTU21D;64295;44.772;39.872;2022-12-07T17:03:22;5.32;60.06
75683;HTU21D;64295;44.772;39.872;2022-12-07T17:05:48;5.34;60.14
75683;HTU21D;64295;44.772;39.872;2022-12-07T17:08:15;5.25;60.11
75683;HTU21D;64295;44.772;39.872;2022-12-07T17:10:43;5.17;60.28
75683;HTU21D;64295;44.772;39.872;2022-12-07T17:13:10;5.08;60.37
75683;HTU21D;64295;44.772;39.872;2022-12-07T17:16:03;5.03;60.38
75683;HTU21D;64295;44.772;39.872;2022-12-07T17:18:32;5.02;60.39
75683;HTU21D;64295;44.772;39.872;2022-12-07T17:21:03;4.97;60.37
75683;HTU21D;64295;44.772;39.872;2022-12-07T17:23:29;4.96;60.42
75683;HTU21D;64295;44.772;39.872;2022-12-07T17:26:26;5.01;60.27
75683;HTU21D;64295;44.772;39.872;2022-12-07T17:28:52;4.97;60.34